Hempstead, New York
Current Conditions -  °F | °C
As of 10:08 PM on Friday 31 Oct 2014 (Local Time) from KJFK Reporting Station
Overcast Overcast  
Wind Chill: 52°   Ceiling: 1700
Heat Index: 52°   Visibility: 10mi
Dew Point: 45°   Wind: 20mph
Humidity: 76%   Direction: 40°NE
Pressure: 29.88"   Gusts: NA
Location:  40.71°N, 73.62°W
Report Text: KJFK 010208Z 04017KT 10SM BKN017 BKN047 OVC055 11/07 A2988 RMK AO2 $
Loading
Personal Weather Stations






























Interactive Weather Map New forecast layout! Learn more

10-Day Weather Forecast

Advertisements
Track Severe Weather on mobile